createdAt,value
2018-11-04T00:02:41.189Z,4.07
2018-11-04T00:06:45.136Z,4.01
2018-11-04T00:10:49.280Z,3.95
2018-11-04T00:14:53.218Z,3.87
2018-11-04T00:18:57.365Z,3.87
2018-11-04T00:23:01.309Z,3.85
2018-11-04T00:27:05.695Z,3.86
2018-11-04T00:31:09.904Z,3.83
2018-11-04T00:35:13.756Z,3.85
2018-11-04T00:39:18.304Z,3.87
2018-11-04T00:43:22.196Z,3.82
2018-11-04T00:47:27.520Z,3.77
2018-11-04T00:51:31.420Z,3.70
2018-11-04T00:55:35.271Z,3.69
2018-11-04T00:59:40.864Z,3.72
2018-11-04T01:03:45.281Z,3.69
2018-11-04T01:07:49.671Z,3.66
2018-11-04T01:11:54.329Z,3.58
2018-11-04T01:15:58.659Z,3.54
2018-11-04T01:20:02.868Z,3.55
2018-11-04T01:24:07.136Z,3.55
2018-11-04T01:28:11.553Z,3.47
2018-11-04T01:32:17.274Z,3.41
2018-11-04T01:36:22.053Z,3.41
2018-11-04T01:40:26.276Z,3.42
2018-11-04T01:44:31.223Z,3.40
2018-11-04T01:48:35.560Z,3.37
2018-11-04T01:52:39.924Z,3.36
2018-11-04T01:56:44.363Z,3.37
2018-11-04T02:00:48.993Z,3.40
2018-11-04T02:04:53.224Z,3.41
2018-11-04T02:08:58.033Z,3.41
2018-11-04T02:13:02.382Z,3.37
2018-11-04T02:17:06.536Z,3.29
2018-11-04T02:21:10.667Z,3.18
2018-11-04T02:25:15.097Z,3.17
2018-11-04T02:29:19.364Z,3.11
2018-11-04T02:33:24.067Z,3.09
2018-11-04T02:37:28.145Z,3.07
2018-11-04T02:41:32.519Z,3.10
2018-11-04T02:45:36.640Z,3.15
2018-11-04T02:49:41.781Z,3.12
2018-11-04T02:53:45.920Z,3.12
2018-11-04T02:57:50.510Z,3.08
2018-11-04T03:01:54.664Z,3.06
2018-11-04T03:05:58.701Z,3.02
2018-11-04T03:10:02.998Z,3.00
2018-11-04T03:14:07.127Z,2.94
2018-11-04T03:18:11.486Z,2.97
2018-11-04T03:22:15.872Z,2.97
2018-11-04T03:26:20.101Z,3.00
2018-11-04T03:30:24.293Z,2.94
2018-11-04T03:34:28.721Z,2.90
2018-11-04T03:38:32.795Z,2.85
2018-11-04T03:42:36.869Z,2.87
2018-11-04T03:46:41.168Z,2.91
2018-11-04T03:50:45.809Z,2.90
2018-11-04T03:54:50.285Z,2.84
2018-11-04T03:58:55.146Z,2.80
2018-11-04T04:02:59.773Z,2.72
2018-11-04T04:07:05.579Z,2.76
2018-11-04T04:11:09.949Z,2.72
2018-11-04T04:15:15.480Z,2.67
2018-11-04T04:19:19.572Z,2.71
2018-11-04T04:23:23.611Z,2.72
2018-11-04T04:27:27.939Z,2.74
2018-11-04T04:31:32.382Z,2.70
2018-11-04T04:35:36.530Z,2.68
2018-11-04T04:39:40.998Z,2.63
2018-11-04T04:43:45.027Z,2.63
2018-11-04T04:47:49.089Z,2.62
2018-11-04T04:51:53.136Z,2.56
2018-11-04T04:55:58.050Z,2.56
2018-11-04T05:00:02.135Z,2.53
2018-11-04T05:04:06.290Z,2.53
2018-11-04T05:08:10.941Z,2.54
2018-11-04T05:12:15.025Z,2.59
2018-11-04T05:16:19.160Z,2.59
2018-11-04T05:20:23.390Z,2.59
2018-11-04T05:24:27.896Z,2.57
2018-11-04T05:28:31.935Z,2.54
2018-11-04T05:32:35.972Z,2.50
2018-11-04T05:36:39.953Z,2.45
2018-11-04T05:40:43.981Z,2.42
2018-11-04T05:44:47.984Z,2.42
2018-11-04T05:48:51.985Z,2.45
2018-11-04T05:52:56.646Z,2.45
2018-11-04T05:57:00.690Z,2.44
2018-11-04T06:01:05.856Z,2.48
2018-11-04T06:05:11.133Z,2.48
2018-11-04T06:09:15.029Z,2.41
2018-11-04T06:13:18.912Z,2.45
2018-11-04T06:17:23.225Z,2.45
2018-11-04T06:21:27.065Z,2.44
2018-11-04T06:25:31.184Z,2.42
2018-11-04T06:29:35.323Z,2.37
2018-11-04T06:33:39.583Z,2.43
2018-11-04T06:37:43.644Z,2.48
2018-11-04T06:41:47.667Z,2.53
2018-11-04T06:45:51.954Z,2.49
2018-11-04T06:49:56.261Z,2.51
2018-11-04T06:54:00.375Z,2.54
2018-11-04T06:58:05.396Z,2.51
2018-11-04T07:02:09.726Z,2.42
2018-11-04T07:06:13.934Z,2.53
2018-11-04T07:10:18.321Z,2.49
2018-11-04T07:14:22.591Z,2.57
2018-11-04T07:18:27.117Z,2.57
2018-11-04T07:22:31.276Z,2.62
2018-11-04T07:26:36.053Z,2.74
2018-11-04T07:30:40.040Z,2.66
2018-11-04T07:34:44.054Z,2.65
2018-11-04T07:38:48.024Z,2.75
2018-11-04T07:42:52.277Z,2.82
2018-11-04T07:46:56.446Z,2.84
2018-11-04T07:51:00.886Z,3.22
2018-11-04T07:55:08.231Z,3.29
2018-11-04T07:59:12.574Z,3.58
2018-11-04T08:03:16.771Z,4.01
2018-11-04T08:07:20.776Z,4.65
2018-11-04T08:11:24.728Z,4.88
2018-11-04T08:15:29.263Z,4.92
2018-11-04T08:19:33.349Z,4.86
2018-11-04T08:23:37.747Z,4.82
2018-11-04T08:27:41.888Z,4.89
2018-11-04T08:31:46.773Z,5.31
2018-11-04T08:35:50.813Z,5.44
2018-11-04T08:39:55.247Z,5.70
2018-11-04T08:44:00.421Z,5.93
2018-11-04T08:48:05.394Z,6.36
2018-11-04T08:52:09.368Z,6.19
2018-11-04T08:56:13.326Z,6.22
2018-11-04T09:00:17.433Z,6.36
2018-11-04T09:04:21.731Z,6.31
2018-11-04T09:08:26.641Z,6.51
2018-11-04T09:12:30.644Z,7.07
2018-11-04T09:16:34.625Z,8.70
2018-11-04T09:20:38.592Z,9.69
2018-11-04T09:24:42.566Z,10.68
2018-11-04T09:28:46.670Z,11.49
2018-11-04T09:32:50.648Z,12.46
2018-11-04T09:36:54.719Z,13.70
2018-11-04T09:40:58.800Z,14.49
2018-11-04T09:45:02.883Z,15.01
2018-11-04T09:49:07.256Z,15.57
2018-11-04T09:53:11.363Z,16.57
2018-11-04T09:57:15.792Z,15.54
2018-11-04T10:01:19.862Z,16.52
2018-11-04T10:05:28.554Z,16.46
2018-11-04T10:09:34.463Z,17.35
2018-11-04T10:13:40.087Z,17.36
2018-11-04T10:17:46.211Z,16.84
2018-11-04T10:21:52.607Z,17.68
2018-11-04T10:25:57.359Z,18.44
2018-11-04T10:30:01.286Z,18.34
2018-11-04T10:34:05.643Z,19.38
2018-11-04T10:38:09.757Z,20.27
2018-11-04T10:42:15.447Z,21.31
2018-11-04T10:46:20.687Z,20.62
2018-11-04T10:50:24.897Z,20.07
2018-11-04T10:54:29.792Z,20.97
2018-11-04T10:58:35.420Z,20.46
2018-11-04T11:02:40.042Z,20.31
2018-11-04T11:06:45.146Z,21.64
2018-11-04T11:10:49.073Z,21.87
2018-11-04T11:14:52.979Z,20.62
2018-11-04T11:18:56.886Z,21.92
2018-11-04T11:23:01.093Z,21.73
2018-11-04T11:27:05.419Z,21.39
2018-11-04T11:31:09.336Z,22.48
2018-11-04T11:35:13.213Z,21.29
2018-11-04T11:39:17.400Z,20.88
2018-11-04T11:43:21.290Z,21.95
2018-11-04T11:47:25.996Z,21.87
2018-11-04T11:51:32.383Z,22.04
2018-11-04T11:55:36.768Z,22.61
2018-11-04T11:59:43.117Z,22.14
2018-11-04T12:03:48.644Z,22.17
2018-11-04T12:07:52.594Z,22.04
2018-11-04T12:11:57.230Z,22.65
2018-11-04T12:16:01.207Z,23.16
2018-11-04T12:20:07.524Z,23.20
2018-11-04T12:24:11.511Z,23.27
2018-11-04T12:28:15.478Z,22.91
2018-11-04T12:32:19.991Z,23.80
2018-11-04T12:36:23.859Z,24.45
2018-11-04T12:40:27.787Z,24.29
2018-11-04T12:44:31.853Z,25.99
2018-11-04T12:48:36.536Z,26.66
2018-11-04T12:52:41.047Z,26.20
2018-11-04T12:56:44.936Z,26.70
2018-11-04T13:00:48.814Z,25.68
2018-11-04T13:04:52.821Z,25.49
2018-11-04T13:08:56.696Z,25.64
2018-11-04T13:13:00.612Z,27.77
2018-11-04T13:17:04.952Z,28.04
2018-11-04T13:21:09.094Z,27.24
2018-11-04T13:25:12.982Z,26.15
2018-11-04T13:29:16.941Z,25.04
2018-11-04T13:33:20.967Z,22.56
2018-11-04T13:37:25.195Z,24.12
2018-11-04T13:41:29.092Z,26.30
2018-11-04T13:45:33.984Z,26.07
2018-11-04T13:49:38.436Z,25.30
2018-11-04T13:53:42.563Z,24.73
2018-11-04T13:57:46.431Z,21.30
2018-11-04T14:01:50.484Z,20.40
2018-11-04T14:05:54.389Z,19.54
2018-11-04T14:09:58.588Z,18.85
2018-11-04T14:14:03.289Z,18.59
2018-11-04T14:18:07.200Z,17.94
2018-11-04T14:22:11.764Z,17.70
2018-11-04T14:26:15.671Z,17.66
2018-11-04T14:30:19.716Z,17.43
2018-11-04T14:34:23.572Z,16.73
2018-11-04T14:38:27.812Z,16.55
2018-11-04T14:42:31.842Z,16.20
2018-11-04T14:46:36.184Z,16.38
2018-11-04T14:50:40.029Z,16.28
2018-11-04T14:54:44.022Z,15.82
2018-11-04T14:58:48.294Z,15.91
2018-11-04T15:02:52.112Z,15.53
2018-11-04T15:06:56.032Z,15.18
2018-11-04T15:10:59.948Z,15.22
2018-11-04T15:15:08.286Z,15.17
2018-11-04T15:19:12.230Z,14.54
2018-11-04T15:23:16.079Z,14.49
2018-11-04T15:27:19.980Z,14.71
2018-11-04T15:31:23.918Z,14.51
2018-11-04T15:35:28.112Z,14.23
2018-11-04T15:39:31.988Z,14.38
2018-11-04T15:43:35.872Z,14.43
2018-11-04T15:47:40.195Z,14.31
2018-11-04T15:51:44.158Z,14.18
2018-11-04T15:55:48.291Z,13.87
2018-11-04T15:59:52.162Z,13.89
2018-11-04T16:03:56.046Z,13.78
2018-11-04T16:07:59.999Z,13.76
2018-11-04T16:12:03.860Z,13.73
2018-11-04T16:16:07.770Z,13.65
2018-11-04T16:20:13.053Z,13.46
2018-11-04T16:24:16.969Z,13.13
2018-11-04T16:28:21.097Z,12.89
2018-11-04T16:32:25.016Z,12.94
2018-11-04T16:36:29.318Z,12.93
2018-11-04T16:40:33.262Z,12.91
2018-11-04T16:44:37.251Z,12.57
2018-11-04T16:48:41.091Z,12.36
2018-11-04T16:52:45.850Z,12.19
2018-11-04T16:56:49.752Z,12.08
2018-11-04T17:00:54.020Z,11.90
2018-11-04T17:04:57.992Z,11.90
2018-11-04T17:09:03.306Z,11.93
2018-11-04T17:13:07.265Z,11.82
2018-11-04T17:17:11.583Z,11.73
2018-11-04T17:21:15.450Z,11.60
2018-11-04T17:25:24.039Z,11.48
2018-11-04T17:29:31.050Z,11.47
2018-11-04T17:33:35.387Z,11.33
2018-11-04T17:37:40.421Z,11.33
2018-11-04T17:41:44.502Z,11.19
2018-11-04T17:45:48.680Z,11.17
2018-11-04T17:49:52.856Z,11.01
2018-11-04T17:53:56.775Z,11.03
2018-11-04T17:58:00.918Z,10.96
2018-11-04T18:02:05.041Z,10.85
2018-11-04T18:06:08.977Z,10.84
2018-11-04T18:10:13.837Z,10.74
2018-11-04T18:14:17.807Z,10.64
2018-11-04T18:18:21.696Z,10.69
2018-11-04T18:22:25.812Z,10.60
2018-11-04T18:26:29.822Z,10.51
2018-11-04T18:30:33.736Z,10.41
2018-11-04T18:34:37.666Z,10.48
2018-11-04T18:38:41.597Z,10.50
2018-11-04T18:42:45.887Z,10.35
2018-11-04T18:46:50.018Z,10.27
2018-11-04T18:50:53.906Z,10.10
2018-11-04T18:54:58.081Z,10.11
2018-11-04T18:59:02.037Z,10.06
2018-11-04T19:03:05.931Z,10.13
2018-11-04T19:07:10.259Z,10.01
2018-11-04T19:11:14.431Z,9.85
2018-11-04T19:15:18.272Z,9.76
2018-11-04T19:19:22.210Z,9.79
2018-11-04T19:23:26.488Z,9.81
2018-11-04T19:27:30.759Z,9.81
2018-11-04T19:31:34.722Z,9.72
2018-11-04T19:35:38.852Z,9.71
2018-11-04T19:39:42.846Z,9.61
2018-11-04T19:43:46.968Z,9.60
2018-11-04T19:47:50.947Z,9.55
2018-11-04T19:51:55.075Z,9.45
2018-11-04T19:55:59.000Z,9.50
2018-11-04T20:00:03.225Z,9.46
2018-11-04T20:04:07.282Z,9.37
2018-11-04T20:08:11.302Z,9.28
2018-11-04T20:12:20.532Z,9.22
2018-11-04T20:16:24.519Z,9.17
2018-11-04T20:20:28.460Z,9.17
2018-11-04T20:26:42.515Z,9.14
2018-11-04T20:30:46.442Z,9.11
2018-11-04T20:34:50.786Z,9.12
2018-11-04T20:39:00.202Z,9.05
2018-11-04T20:43:05.368Z,9.07
2018-11-04T20:47:10.089Z,9.03
2018-11-04T20:51:14.309Z,9.04
2018-11-04T20:55:18.574Z,9.08
2018-11-04T20:59:22.443Z,9.07
2018-11-04T21:03:27.668Z,9.02
2018-11-04T21:07:32.025Z,8.95
2018-11-04T21:11:36.227Z,8.93
2018-11-04T21:15:40.189Z,8.90
2018-11-04T21:19:44.268Z,8.88
2018-11-04T21:23:48.184Z,8.93
2018-11-04T21:27:52.082Z,8.89
2018-11-04T21:31:56.149Z,8.85
2018-11-04T21:36:00.077Z,8.81
2018-11-04T21:40:04.608Z,8.79
2018-11-04T21:44:08.760Z,8.73
2018-11-04T21:48:12.522Z,8.72
2018-11-04T21:52:16.579Z,8.76
2018-11-04T21:56:20.616Z,8.70
2018-11-04T22:00:24.742Z,8.60
2018-11-04T22:04:28.822Z,8.64
2018-11-04T22:08:32.769Z,8.66
2018-11-04T22:12:36.756Z,8.58
2018-11-04T22:16:40.883Z,8.55
2018-11-04T22:20:44.948Z,8.50
2018-11-04T22:24:48.897Z,8.54
2018-11-04T22:28:52.788Z,8.52
2018-11-04T22:32:56.758Z,8.44
2018-11-04T22:37:00.878Z,8.46
2018-11-04T22:41:04.999Z,8.44
2018-11-04T22:45:10.556Z,8.36
2018-11-04T22:49:14.485Z,8.35
2018-11-04T22:53:18.453Z,8.30
2018-11-04T22:57:23.016Z,8.17
2018-11-04T23:01:27.312Z,8.18
2018-11-04T23:05:31.247Z,8.13
2018-11-04T23:09:35.200Z,8.07
2018-11-04T23:13:39.278Z,8.07
2018-11-04T23:17:43.399Z,8.05
2018-11-04T23:21:48.022Z,8.03
2018-11-04T23:25:51.996Z,7.95
2018-11-04T23:29:56.339Z,7.92
2018-11-04T23:34:00.271Z,7.86
2018-11-04T23:38:05.116Z,7.82
2018-11-04T23:42:09.096Z,7.81
2018-11-04T23:46:13.059Z,7.71
2018-11-04T23:50:17.519Z,7.72
2018-11-04T23:54:21.380Z,7.73
2018-11-04T23:58:25.539Z,7.70
